Time,TemperatureF,DewpointF,PressureIn,WindDirection,WindDirectionDegrees,WindSpeedMPH,WindSpeedGustMPH,Humidity,HourlyPrecipIn,Conditions,Clouds,dailyrainin,SoftwareType,DateUTC
2013-02-25 00:00:00,46.6,37.0,29.96,West,260,3.0,6.0,69,0.00,CLR,,0.00,WeatherDisplay:10.37,2013-02-25 08:00:00,
2013-02-25 00:05:00,46.3,38.1,29.96,ENE,68,3.0,6.0,73,0.01,,,0.01,WeatherDisplay:10.37,2013-02-25 08:05:00,
2013-02-25 00:10:00,45.9,38.4,29.96,SE,139,1.0,9.0,75,0.00,,,0.01,WeatherDisplay:10.37,2013-02-25 08:10:00,
2013-02-25 00:20:00,45.0,38.9,29.95,South,170,1.0,7.0,79,0.00,,,0.01,WeatherDisplay:10.37,2013-02-25 08:20:00,
2013-02-25 00:30:00,44.4,39.2,29.94,SE,136,1.0,9.0,82,0.00,,,0.02,WeatherDisplay:10.37,2013-02-25 08:30:00,
2013-02-25 00:40:00,43.7,39.8,29.94,South,186,0.0,5.0,86,0.01,,,0.04,WeatherDisplay:10.37,2013-02-25 08:40:00,
2013-02-25 00:50:00,43.0,40.2,29.93,SW,214,0.0,0.0,90,0.01,,,0.06,WeatherDisplay:10.37,2013-02-25 08:50:00,
2013-02-25 01:00:00,42.6,40.4,29.93,SW,219,0.0,2.0,92,0.01,,,0.08,WeatherDisplay:10.37,2013-02-25 09:00:00,
2013-02-25 01:05:00,42.5,40.6,29.93,West,261,0.0,0.0,93,0.01,,,0.09,WeatherDisplay:10.37,2013-02-25 09:05:00,
2013-02-25 01:10:00,42.3,40.2,29.92,West,260,0.0,0.0,92,0.00,,,0.09,WeatherDisplay:10.37,2013-02-25 09:10:00,
2013-02-25 01:20:00,42.6,40.4,29.92,SSW,198,0.0,7.0,92,0.01,,,0.11,WeatherDisplay:10.37,2013-02-25 09:20:00,
2013-02-25 01:30:00,42.6,40.7,29.92,SSW,207,0.0,1.0,93,0.01,RA,,0.12,WeatherDisplay:10.37,2013-02-25 09:30:00,
2013-02-25 01:40:00,42.5,40.9,29.91,SSW,192,1.0,4.0,94,0.01,,,0.14,WeatherDisplay:10.37,2013-02-25 09:40:00,
2013-02-25 01:50:00,42.5,40.9,29.91,West,281,0.0,0.0,94,0.00,RA,,0.14,WeatherDisplay:10.37,2013-02-25 09:50:00,
2013-02-25 02:00:00,42.7,40.8,29.91,South,171,0.0,0.0,93,0.00,,,0.14,WeatherDisplay:10.37,2013-02-25 10:00:00,
2013-02-25 02:05:00,42.8,40.7,29.91,SSE,157,2.0,7.0,92,0.01,,,0.15,WeatherDisplay:10.37,2013-02-25 10:05:00,
2013-02-25 02:10:00,43.1,41.2,29.91,ESE,103,2.0,6.0,93,0.00,,,0.15,WeatherDisplay:10.37,2013-02-25 10:10:00,
2013-02-25 02:20:00,42.9,41.0,29.91,SE,128,3.0,6.0,93,0.01,,,0.17,WeatherDisplay:10.37,2013-02-25 10:20:00,
2013-02-25 02:30:00,42.7,41.1,29.91,SSE,150,1.0,2.0,94,0.01,,,0.19,WeatherDisplay:10.37,2013-02-25 10:30:00,
2013-02-25 02:40:00,42.6,41.3,29.91,East,100,2.0,7.0,95,0.00,,,0.20,WeatherDisplay:10.37,2013-02-25 10:40:00,
2013-02-25 02:50:00,42.7,41.1,29.91,SE,125,2.0,12.0,94,0.00,,,0.21,WeatherDisplay:10.37,2013-02-25 10:50:00,
2013-02-25 03:00:00,42.5,41.2,29.92,SE,145,3.0,9.0,95,0.00,,,0.21,WeatherDisplay:10.37,2013-02-25 11:00:00,
2013-02-25 03:10:00,42.6,41.0,29.92,East,91,2.0,7.0,94,0.00,,,0.21,WeatherDisplay:10.37,2013-02-25 11:10:00,
2013-02-25 03:20:00,42.7,41.1,29.92,East,87,2.0,8.0,94,0.00,,,0.21,WeatherDisplay:10.37,2013-02-25 11:20:00,
2013-02-25 03:30:00,42.7,40.8,29.92,SE,143,2.0,5.0,93,0.00,,,0.21,WeatherDisplay:10.37,2013-02-25 11:30:00,
2013-02-25 03:40:00,42.6,40.7,29.92,ESE,120,3.0,5.0,93,0.00,,,0.21,WeatherDisplay:10.37,2013-02-25 11:40:00,
2013-02-25 03:50:00,42.5,40.6,29.93,ESE,109,2.0,10.0,93,0.00,CLR,,0.21,WeatherDisplay:10.37,2013-02-25 11:50:00,
2013-02-25 04:00:00,42.5,40.6,29.94,SE,128,2.0,12.0,93,0.00,CLR,,0.21,WeatherDisplay:10.37,2013-02-25 12:00:00,
2013-02-25 04:05:00,42.5,40.6,29.94,SE,136,2.0,5.0,93,0.00,CLR,,0.21,WeatherDisplay:10.37,2013-02-25 12:05:00,
2013-02-25 04:10:00,42.5,40.6,29.94,SSE,147,2.0,3.0,93,0.00,CLR,,0.21,WeatherDisplay:10.37,2013-02-25 12:10:00,
2013-02-25 04:20:00,42.4,40.5,29.95,East,84,2.0,10.0,93,0.00,CLR,,0.21,WeatherDisplay:10.37,2013-02-25 12:20:00,
2013-02-25 04:30:00,42.5,40.3,29.96,East,83,1.0,3.0,92,0.00,CLR,,0.21,WeatherDisplay:10.37,2013-02-25 12:30:00,
2013-02-25 04:40:00,42.5,40.3,29.96,SSE,158,2.0,7.0,92,0.00,CLR,,0.21,WeatherDisplay:10.37,2013-02-25 12:40:00,
2013-02-25 04:45:00,42.5,40.1,29.96,South,180,2.0,6.0,91,0.00,CLR,,0.21,WeatherDisplay:10.37,2013-02-25 12:45:00,
2013-02-25 04:55:00,42.6,39.9,29.96,SE,146,2.0,6.0,90,0.00,CLR,,0.21,WeatherDisplay:10.37,2013-02-25 12:55:00,
2013-02-25 05:00:00,42.5,40.1,29.95,SSE,157,2.0,5.0,91,0.00,CLR,,0.21,WeatherDisplay:10.37,2013-02-25 13:00:00,
2013-02-25 05:10:00,42.6,39.9,29.95,SE,133,1.0,7.0,90,0.00,CLR,,0.21,WeatherDisplay:10.37,2013-02-25 13:10:00,
2013-02-25 05:20:00,42.6,39.6,29.96,SE,146,1.0,8.0,89,0.00,CLR,,0.21,WeatherDisplay:10.37,2013-02-25 13:20:00,
2013-02-25 05:30:00,42.7,39.6,29.97,ESE,110,1.0,5.0,89,0.00,CLR,,0.21,WeatherDisplay:10.37,2013-02-25 13:30:00,
2013-02-25 05:40:00,42.7,39.7,29.97,SSE,161,5.0,9.0,89,0.00,CLR,,0.21,WeatherDisplay:10.37,2013-02-25 13:40:00,
2013-02-25 05:50:00,42.6,39.6,29.96,SSE,161,5.0,9.0,89,0.00,CLR,,0.21,WeatherDisplay:10.37,2013-02-25 13:50:00,
2013-02-25 06:00:00,42.6,39.5,29.97,SE,128,2.0,4.0,89,0.00,CLR,,0.21,WeatherDisplay:10.37,2013-02-25 14:00:00,
2013-02-25 06:05:00,42.5,39.5,29.97,SSE,166,3.0,6.0,89,0.00,CLR,,0.21,WeatherDisplay:10.37,2013-02-25 14:05:00,
2013-02-25 06:20:00,42.3,39.3,29.96,SSE,159,3.0,12.0,89,0.00,CLR,,0.21,WeatherDisplay:10.37,2013-02-25 14:20:00,
2013-02-25 06:25:00,42.4,39.1,29.96,SE,131,5.0,10.0,88,0.00,CLR,,0.21,WeatherDisplay:10.37,2013-02-25 14:25:00,
2013-02-25 06:30:00,42.5,39.2,29.97,SE,135,3.0,7.0,88,0.00,CLR,,0.21,WeatherDisplay:10.37,2013-02-25 14:30:00,
2013-02-25 06:40:00,42.4,39.1,29.97,SE,146,5.0,9.0,88,0.00,CLR,,0.21,WeatherDisplay:10.37,2013-02-25 14:40:00,
2013-02-25 06:50:00,42.4,39.1,29.97,SE,140,2.0,5.0,88,0.00,CLR,,0.21,WeatherDisplay:10.37,2013-02-25 14:50:00,
2013-02-25 07:00:00,42.3,39.0,29.97,SSE,165,2.0,5.0,88,0.00,CLR,,0.21,WeatherDisplay:10.37,2013-02-25 15:00:00,
2013-02-25 07:05:00,42.3,39.0,29.97,SSE,151,1.0,5.0,88,0.00,CLR,,0.21,WeatherDisplay:10.37,2013-02-25 15:05:00,
2013-02-25 07:10:00,42.2,38.9,29.97,South,180,2.0,5.0,88,0.00,CLR,,0.21,WeatherDisplay:10.37,2013-02-25 15:10:00,
2013-02-25 07:20:00,42.2,38.9,29.97,SSW,202,2.0,6.0,88,0.00,CLR,,0.21,WeatherDisplay:10.37,2013-02-25 15:20:00,
2013-02-25 07:30:00,42.2,38.6,29.98,South,171,1.0,7.0,87,0.00,CLR,,0.21,WeatherDisplay:10.37,2013-02-25 15:30:00,
2013-02-25 07:35:00,42.3,38.7,29.98,SSE,159,2.0,6.0,87,0.00,CLR,,0.21,WeatherDisplay:10.37,2013-02-25 15:35:00,
2013-02-25 07:40:00,42.3,38.7,29.98,SE,126,3.0,6.0,87,0.00,CLR,,0.21,WeatherDisplay:10.37,2013-02-25 15:40:00,
2013-02-25 07:50:00,42.2,38.6,29.99,SSW,194,3.0,8.0,87,0.00,CLR,,0.21,WeatherDisplay:10.37,2013-02-25 15:50:00,
2013-02-25 08:00:00,42.1,38.5,29.99,SE,137,2.0,10.0,87,0.00,CLR,,0.21,WeatherDisplay:10.37,2013-02-25 16:00:00,
2013-02-25 08:10:00,42.1,38.5,30.00,SSE,164,3.0,8.0,87,0.00,CLR,,0.21,WeatherDisplay:10.37,2013-02-25 16:10:00,
2013-02-25 08:20:00,42.0,38.4,30.00,South,179,3.0,8.0,87,0.00,CLR,,0.21,WeatherDisplay:10.37,2013-02-25 16:20:00,
2013-02-25 08:30:00,42.0,38.4,30.00,SSW,201,3.0,7.0,87,0.00,CLR,,0.21,WeatherDisplay:10.37,2013-02-25 16:30:00,
2013-02-25 08:40:00,42.0,38.1,30.00,SSW,192,2.0,6.0,86,0.00,CLR,,0.21,WeatherDisplay:10.37,2013-02-25 16:40:00,
2013-02-25 08:45:00,42.1,38.2,30.00,SSE,163,2.0,6.0,86,0.00,CLR,,0.21,WeatherDisplay:10.37,2013-02-25 16:45:00,
2013-02-25 08:50:00,42.2,38.3,30.01,SSE,156,3.0,7.0,86,0.00,CLR,,0.21,WeatherDisplay:10.37,2013-02-25 16:50:00,
2013-02-25 09:00:00,42.3,38.1,30.01,SSE,160,5.0,14.0,85,0.00,CLR,,0.21,WeatherDisplay:10.37,2013-02-25 17:00:00,
2013-02-25 09:05:00,42.4,38.5,30.02,South,169,3.0,6.0,86,0.00,CLR,,0.21,WeatherDisplay:10.37,2013-02-25 17:05:00,
2013-02-25 09:10:00,42.5,38.3,30.02,South,174,2.0,9.0,85,0.00,CLR,,0.21,WeatherDisplay:10.37,2013-02-25 17:10:00,
2013-02-25 09:20:00,42.6,38.4,30.03,SSE,159,2.0,6.0,85,0.00,CLR,,0.21,WeatherDisplay:10.37,2013-02-25 17:20:00,
2013-02-25 09:30:00,42.7,38.5,30.03,SSE,166,2.0,7.0,85,0.00,CLR,,0.21,WeatherDisplay:10.37,2013-02-25 17:30:00,
2013-02-25 09:40:00,42.9,38.7,30.03,SSE,150,3.0,6.0,85,0.00,CLR,,0.21,WeatherDisplay:10.37,2013-02-25 17:40:00,
2013-02-25 09:50:00,43.0,39.1,30.03,SSW,195,3.0,8.0,86,0.00,CLR,,0.21,WeatherDisplay:10.37,2013-02-25 17:50:00,
2013-02-25 10:00:00,43.1,39.2,30.03,South,172,3.0,7.0,86,0.00,CLR,,0.21,WeatherDisplay:10.37,2013-02-25 18:00:00,
2013-02-25 10:05:00,43.1,39.2,30.03,South,181,3.0,7.0,86,0.00,CLR,,0.21,WeatherDisplay:10.37,2013-02-25 18:05:00,
2013-02-25 10:10:00,43.2,39.0,30.04,South,179,3.0,7.0,85,0.00,CLR,,0.21,WeatherDisplay:10.37,2013-02-25 18:10:00,
2013-02-25 10:20:00,43.2,39.0,30.04,SSE,156,5.0,12.0,85,0.00,CLR,,0.21,WeatherDisplay:10.37,2013-02-25 18:20:00,
2013-02-25 10:30:00,43.2,38.7,30.04,South,172,2.0,10.0,84,0.00,CLR,,0.21,WeatherDisplay:10.37,2013-02-25 18:30:00,
2013-02-25 10:40:00,43.2,39.0,30.05,SE,124,3.0,8.0,85,0.00,CLR,,0.21,WeatherDisplay:10.37,2013-02-25 18:40:00,
2013-02-25 10:50:00,43.3,38.8,30.05,SSE,149,2.0,7.0,84,0.00,CLR,,0.21,WeatherDisplay:10.37,2013-02-25 18:50:00,
2013-02-25 11:00:00,43.3,38.5,30.06,SSE,157,3.0,7.0,83,0.00,CLR,,0.21,WeatherDisplay:10.37,2013-02-25 19:00:00,
2013-02-25 11:05:00,43.4,38.6,30.06,SE,135,2.0,5.0,83,0.00,CLR,,0.21,WeatherDisplay:10.37,2013-02-25 19:05:00,
2013-02-25 11:10:00,43.5,38.7,30.06,SSE,163,3.0,7.0,83,0.00,CLR,,0.21,WeatherDisplay:10.37,2013-02-25 19:10:00,
2013-02-25 11:20:00,43.6,38.5,30.06,SE,145,3.0,6.0,82,0.00,CLR,,0.21,WeatherDisplay:10.37,2013-02-25 19:20:00,
2013-02-25 11:30:00,43.7,38.5,30.07,SE,138,3.0,9.0,82,0.00,CLR,,0.21,WeatherDisplay:10.37,2013-02-25 19:30:00,
2013-02-25 11:40:00,43.8,38.4,30.07,SE,134,3.0,8.0,81,0.00,CLR,,0.21,WeatherDisplay:10.37,2013-02-25 19:40:00,
2013-02-25 11:50:00,44.0,38.2,30.07,SE,133,2.0,6.0,80,0.00,CLR,,0.21,WeatherDisplay:10.37,2013-02-25 19:50:00,
2013-02-25 12:00:00,44.4,38.6,30.08,SE,146,2.0,6.0,80,0.00,CLR,,0.21,WeatherDisplay:10.37,2013-02-25 20:00:00,
2013-02-25 12:05:00,44.6,38.5,30.08,South,172,3.0,9.0,79,0.00,CLR,,0.21,WeatherDisplay:10.37,2013-02-25 20:05:00,
2013-02-25 12:10:00,44.8,39.0,30.09,South,184,2.0,6.0,80,0.00,CLR,,0.21,WeatherDisplay:10.37,2013-02-25 20:10:00,
2013-02-25 12:20:00,45.4,38.6,30.09,South,173,1.0,5.0,77,0.00,CLR,,0.21,WeatherDisplay:10.37,2013-02-25 20:20:00,
2013-02-25 12:30:00,46.0,38.5,30.09,SE,137,2.0,9.0,75,0.00,RA,,0.21,WeatherDisplay:10.37,2013-02-25 20:30:00,
2013-02-25 12:40:00,46.4,38.6,30.09,SSW,195,1.0,5.0,74,0.00,RA,,0.21,WeatherDisplay:10.37,2013-02-25 20:40:00,
2013-02-25 12:45:00,46.6,38.4,30.09,SSW,197,2.0,6.0,73,0.00,RA,,0.21,WeatherDisplay:10.37,2013-02-25 20:45:00,
2013-02-25 12:50:00,46.7,38.1,30.09,SSE,155,3.0,6.0,72,0.00,RA,,0.21,WeatherDisplay:10.37,2013-02-25 20:50:00,
2013-02-25 13:00:00,46.8,37.2,30.10,SE,126,6.0,13.0,69,0.00,RA,,0.21,WeatherDisplay:10.37,2013-02-25 21:00:00,
2013-02-25 13:05:00,46.7,37.4,30.10,SE,130,5.0,12.0,70,0.00,RA,,0.21,WeatherDisplay:10.37,2013-02-25 21:05:00,
2013-02-25 13:10:00,46.7,37.8,30.10,SSE,152,3.0,9.0,71,0.00,RA,,0.21,WeatherDisplay:10.37,2013-02-25 21:10:00,
2013-02-25 13:20:00,47.0,37.7,30.10,SSE,152,2.0,4.0,70,0.00,RA,,0.21,WeatherDisplay:10.37,2013-02-25 21:20:00,
2013-02-25 13:30:00,47.2,38.3,30.11,South,183,6.0,12.0,71,0.00,RA,,0.21,WeatherDisplay:10.37,2013-02-25 21:30:00,
2013-02-25 13:40:00,47.2,37.9,30.11,SE,141,5.0,12.0,70,0.00,RA,,0.21,WeatherDisplay:10.37,2013-02-25 21:40:00,
2013-02-25 13:50:00,47.6,37.9,30.11,SE,133,5.0,12.0,69,0.00,RA,,0.21,WeatherDisplay:10.37,2013-02-25 21:50:00,
2013-02-25 14:00:00,48.4,38.3,30.10,South,173,5.0,7.0,68,0.00,RA,,0.21,WeatherDisplay:10.37,2013-02-25 22:00:00,
2013-02-25 14:05:00,48.8,37.9,30.10,ESE,121,5.0,12.0,66,0.00,RA,,0.21,WeatherDisplay:10.37,2013-02-25 22:05:00,
2013-02-25 14:10:00,49.1,37.8,30.11,SE,140,5.0,12.0,65,0.00,RA,,0.21,WeatherDisplay:10.37,2013-02-25 22:10:00,
2013-02-25 14:20:00,48.6,37.0,30.11,SSE,154,5.0,7.0,64,0.00,RA,,0.21,WeatherDisplay:10.37,2013-02-25 22:20:00,
2013-02-25 14:30:00,48.4,37.5,30.11,ESE,103,1.0,8.0,66,0.00,RA,,0.21,WeatherDisplay:10.37,2013-02-25 22:30:00,
2013-02-25 14:40:00,48.5,36.8,30.12,WSW,248,2.0,9.0,64,0.00,RA,,0.21,WeatherDisplay:10.37,2013-02-25 22:40:00,
2013-02-25 14:50:00,48.6,36.6,30.11,ESE,107,1.0,7.0,63,0.00,RA,,0.21,WeatherDisplay:10.37,2013-02-25 22:50:00,
2013-02-25 15:00:00,49.2,35.9,30.12,NE,47,5.0,9.0,60,0.00,RA,,0.21,WeatherDisplay:10.37,2013-02-25 23:00:00,
2013-02-25 15:05:00,49.5,35.3,30.12,NW,311,1.0,4.0,58,0.00,RA,,0.21,WeatherDisplay:10.37,2013-02-25 23:05:00,
2013-02-25 15:10:00,49.8,34.7,30.12,NE,39,3.0,5.0,56,0.00,RA,,0.21,WeatherDisplay:10.37,2013-02-25 23:10:00,
2013-02-25 15:20:00,49.9,34.4,30.12,WSW,251,1.0,12.0,55,0.00,RA,,0.21,WeatherDisplay:10.37,2013-02-25 23:20:00,
2013-02-25 15:30:00,50.0,33.1,30.13,East,90,2.0,8.0,52,0.00,RA,,0.21,WeatherDisplay:10.37,2013-02-25 23:30:00,
2013-02-25 15:40:00,49.9,31.5,30.13,WSW,257,1.0,5.0,49,0.00,RA,,0.21,WeatherDisplay:10.37,2013-02-25 23:40:00,
2013-02-25 15:50:00,49.9,32.0,30.13,East,89,6.0,13.0,50,0.00,RA,,0.21,WeatherDisplay:10.37,2013-02-25 23:50:00,
2013-02-25 16:00:00,49.5,32.6,30.14,ESE,117,2.0,8.0,52,0.00,RA,,0.21,WeatherDisplay:10.37,2013-02-26 00:00:00,
2013-02-25 16:05:00,49.4,32.9,30.14,SSE,150,7.0,17.0,53,0.00,RA,,0.21,WeatherDisplay:10.37,2013-02-26 00:05:00,
2013-02-25 16:10:00,48.9,33.5,30.15,SE,127,5.0,12.0,55,0.00,RA,,0.21,WeatherDisplay:10.37,2013-02-26 00:10:00,
2013-02-25 16:20:00,48.6,34.9,30.15,SE,139,2.0,8.0,59,0.00,RA,,0.21,WeatherDisplay:10.37,2013-02-26 00:20:00,
2013-02-25 16:30:00,48.2,35.8,30.15,South,184,1.0,6.0,62,0.00,RA,,0.21,WeatherDisplay:10.37,2013-02-26 00:30:00,
2013-02-25 16:40:00,47.6,35.7,30.16,South,177,5.0,9.0,63,0.00,RA,,0.21,WeatherDisplay:10.37,2013-02-26 00:40:00,
2013-02-25 16:50:00,46.9,35.4,30.16,SE,131,5.0,12.0,64,0.00,RA,,0.21,WeatherDisplay:10.37,2013-02-26 00:50:00,
2013-02-25 17:00:00,46.5,35.7,30.17,SE,130,3.0,7.0,66,0.00,RA,,0.21,WeatherDisplay:10.37,2013-02-26 01:00:00,
2013-02-25 17:05:00,46.3,35.5,30.17,SSE,158,2.0,5.0,66,0.00,RA,,0.21,WeatherDisplay:10.37,2013-02-26 01:05:00,
2013-02-25 17:10:00,45.9,35.6,30.17,South,172,2.0,10.0,67,0.00,RA,,0.21,WeatherDisplay:10.37,2013-02-26 01:10:00,
2013-02-25 17:20:00,45.3,35.0,30.18,SE,130,5.0,10.0,67,0.00,RA,,0.21,WeatherDisplay:10.37,2013-02-26 01:20:00,
2013-02-25 17:30:00,44.9,35.7,30.18,SSE,159,2.0,8.0,70,0.00,RA,,0.21,WeatherDisplay:10.37,2013-02-26 01:30:00,
2013-02-25 17:40:00,44.6,35.8,30.18,SE,143,2.0,6.0,71,0.00,RA,,0.21,WeatherDisplay:10.37,2013-02-26 01:40:00,
2013-02-25 17:50:00,44.4,35.9,30.19,South,174,5.0,12.0,72,0.00,RA,,0.21,WeatherDisplay:10.37,2013-02-26 01:50:00,
2013-02-25 18:00:00,44.2,36.1,30.19,SSE,148,1.0,3.0,73,0.00,RA,,0.21,WeatherDisplay:10.37,2013-02-26 02:00:00,
2013-02-25 18:05:00,43.9,35.8,30.19,SSE,165,1.0,3.0,73,0.00,RA,,0.21,WeatherDisplay:10.37,2013-02-26 02:05:00,
2013-02-25 18:10:00,43.7,36.0,30.19,SSE,148,2.0,5.0,74,0.00,RA,,0.21,WeatherDisplay:10.37,2013-02-26 02:10:00,
2013-02-25 18:20:00,43.3,35.6,30.20,SSE,165,1.0,4.0,74,0.00,RA,,0.21,WeatherDisplay:10.37,2013-02-26 02:20:00,
2013-02-25 18:30:00,43.0,35.6,30.20,SSE,147,1.0,5.0,75,0.00,RA,,0.21,WeatherDisplay:10.37,2013-02-26 02:30:00,
2013-02-25 18:40:00,42.7,35.7,30.21,SSE,158,3.0,6.0,76,0.00,RA,,0.21,WeatherDisplay:10.37,2013-02-26 02:40:00,
2013-02-25 18:50:00,42.5,35.5,30.22,SSE,154,1.0,7.0,76,0.00,RA,,0.21,WeatherDisplay:10.37,2013-02-26 02:50:00,
2013-02-25 19:00:00,42.5,35.8,30.22,South,188,2.0,4.0,77,0.00,RA,,0.21,WeatherDisplay:10.37,2013-02-26 03:00:00,
2013-02-25 19:05:00,42.6,35.9,30.22,South,187,1.0,3.0,77,0.00,RA,,0.21,WeatherDisplay:10.37,2013-02-26 03:05:00,
2013-02-25 19:10:00,42.6,35.9,30.23,South,170,2.0,4.0,77,0.00,RA,,0.21,WeatherDisplay:10.37,2013-02-26 03:10:00,
2013-02-25 19:20:00,42.7,36.0,30.23,SSE,165,1.0,6.0,77,0.00,RA,,0.21,WeatherDisplay:10.37,2013-02-26 03:20:00,
2013-02-25 19:30:00,42.5,36.1,30.23,SSE,161,1.0,5.0,78,0.00,RA,,0.21,WeatherDisplay:10.37,2013-02-26 03:30:00,
2013-02-25 19:40:00,42.4,35.7,30.23,South,182,3.0,6.0,77,0.00,RA,,0.21,WeatherDisplay:10.37,2013-02-26 03:40:00,
2013-02-25 19:50:00,42.2,35.8,30.23,SSE,163,2.0,4.0,78,0.00,RA,,0.21,WeatherDisplay:10.37,2013-02-26 03:50:00,
2013-02-25 20:00:00,42.2,35.5,30.24,SSE,158,2.0,5.0,77,0.00,RA,,0.21,WeatherDisplay:10.37,2013-02-26 04:00:00,
2013-02-25 20:05:00,42.2,35.5,30.24,SSE,165,3.0,6.0,77,0.00,RA,,0.21,WeatherDisplay:10.37,2013-02-26 04:05:00,
2013-02-25 20:10:00,42.2,35.5,30.24,SSE,156,2.0,7.0,77,0.00,RA,,0.21,WeatherDisplay:10.37,2013-02-26 04:10:00,
2013-02-25 20:20:00,42.1,35.7,30.25,SSE,157,1.0,5.0,78,0.00,RA,,0.21,WeatherDisplay:10.37,2013-02-26 04:20:00,
2013-02-25 20:30:00,41.9,35.9,30.25,South,181,1.0,3.0,79,0.00,RA,,0.21,WeatherDisplay:10.37,2013-02-26 04:30:00,
2013-02-25 20:40:00,41.6,36.2,30.26,South,173,1.0,3.0,81,0.00,RA,,0.21,WeatherDisplay:10.37,2013-02-26 04:40:00,
2013-02-25 20:50:00,41.2,36.2,30.26,SSW,202,1.0,4.0,82,0.00,RA,,0.21,WeatherDisplay:10.37,2013-02-26 04:50:00,
2013-02-25 21:00:00,41.2,36.1,30.27,SSW,201,1.0,3.0,82,0.00,RA,,0.21,WeatherDisplay:10.37,2013-02-26 05:00:00,
2013-02-25 21:05:00,41.2,36.1,30.27,SE,143,2.0,6.0,82,0.00,RA,,0.21,WeatherDisplay:10.37,2013-02-26 05:05:00,
2013-02-25 21:10:00,41.3,36.3,30.27,SSE,153,2.0,4.0,82,0.00,RA,,0.21,WeatherDisplay:10.37,2013-02-26 05:10:00,
2013-02-25 21:20:00,41.3,36.2,30.28,South,171,1.0,4.0,82,0.00,RA,,0.21,WeatherDisplay:10.37,2013-02-26 05:20:00,
2013-02-25 21:30:00,41.1,36.3,30.28,South,184,1.0,3.0,83,0.00,RA,,0.21,WeatherDisplay:10.37,2013-02-26 05:30:00,
2013-02-25 21:40:00,40.9,36.1,30.29,South,171,1.0,4.0,83,0.00,RA,,0.21,WeatherDisplay:10.37,2013-02-26 05:40:00,
2013-02-25 21:45:00,40.7,35.9,30.29,South,171,2.0,5.0,83,0.00,RA,,0.21,WeatherDisplay:10.37,2013-02-26 05:45:00,
2013-02-25 21:50:00,40.7,35.9,30.29,South,174,0.0,3.0,83,0.00,RA,,0.21,WeatherDisplay:10.37,2013-02-26 05:50:00,
2013-02-25 22:00:00,40.5,36.0,30.30,SSW,192,1.0,3.0,84,0.00,RA,,0.21,WeatherDisplay:10.37,2013-02-26 06:00:00,
2013-02-25 22:05:00,40.3,35.9,30.30,South,180,1.0,4.0,84,0.00,RA,,0.21,WeatherDisplay:10.37,2013-02-26 06:05:00,
2013-02-25 22:10:00,40.3,35.9,30.30,SSE,163,1.0,4.0,84,0.00,RA,,0.21,WeatherDisplay:10.37,2013-02-26 06:10:00,
2013-02-25 22:20:00,40.5,36.1,30.30,South,171,2.0,4.0,84,0.00,RA,,0.21,WeatherDisplay:10.37,2013-02-26 06:20:00,
2013-02-25 22:30:00,40.5,36.0,30.30,SSE,166,1.0,3.0,84,0.00,RA,,0.21,WeatherDisplay:10.37,2013-02-26 06:30:00,
2013-02-25 22:40:00,40.2,35.8,30.30,SE,138,1.0,3.0,84,0.00,RA,,0.21,WeatherDisplay:10.37,2013-02-26 06:40:00,
2013-02-25 22:50:00,40.2,35.8,30.30,SSE,164,1.0,4.0,84,0.00,RA,,0.21,WeatherDisplay:10.37,2013-02-26 06:50:00,
2013-02-25 23:00:00,39.9,35.5,30.30,SSE,165,1.0,3.0,84,0.00,RA,,0.21,WeatherDisplay:10.37,2013-02-26 07:00:00,
2013-02-25 23:05:00,39.9,35.5,30.30,SSE,152,1.0,3.0,84,0.00,RA,,0.21,WeatherDisplay:10.37,2013-02-26 07:05:00,
2013-02-25 23:10:00,39.9,35.5,30.30,South,176,1.0,3.0,84,0.00,RA,,0.21,WeatherDisplay:10.37,2013-02-26 07:10:00,
2013-02-25 23:20:00,39.8,35.4,30.31,SSE,167,1.0,4.0,84,0.00,RA,,0.21,WeatherDisplay:10.37,2013-02-26 07:20:00,
2013-02-25 23:30:00,39.6,35.5,30.31,SSW,200,0.0,3.0,85,0.00,RA,,0.21,WeatherDisplay:10.37,2013-02-26 07:30:00,
2013-02-25 23:40:00,39.6,35.5,30.31,SSE,156,1.0,4.0,85,0.00,RA,,0.21,WeatherDisplay:10.37,2013-02-26 07:40:00,
2013-02-25 23:50:00,39.5,35.4,30.31,SSE,155,1.0,4.0,85,0.00,RA,,0.21,WeatherDisplay:10.37,2013-02-26 07:50:00,